Time;durP1;ratioP1;P1;durP2;ratioP2;P2;SDS_P1;SDS_P2;PMS_P1;PMS_P2;Temp;Humidity;BMP_temperature;BMP_pressure;BME280_temperature;BME280_humidity;BME280_pressure;Samples;Min_cycle;Max_cycle;Signal;HPM_P1;HPM_P2
2023/08/04 00:01:17;;;;;;;29.90;27.50;;;15.60;90.60;;;;;;5016446;28;20181;-89
2023/08/04 00:03:43;;;;;;;29.98;27.58;;;15.50;90.70;;;;;;5016424;28;20546;-90
2023/08/04 00:06:09;;;;;;;31.40;28.02;;;15.50;90.70;;;;;;4998933;28;20178;-90
2023/08/04 00:08:35;;;;;;;32.10;29.10;;;15.40;90.80;;;;;;4999018;28;20653;-90
2023/08/04 00:11:01;;;;;;;36.75;33.63;;;15.30;90.90;;;;;;4998861;28;20732;-90
2023/08/04 00:13:27;;;;;;;36.13;32.33;;;15.30;91.10;;;;;;4998639;28;20228;-90
2023/08/04 00:15:52;;;;;;;31.45;28.83;;;15.30;91.20;;;;;;4998602;28;20217;-90
2023/08/04 00:18:18;;;;;;;31.27;28.77;;;15.20;91.40;;;;;;4998576;28;20195;-90
2023/08/04 00:20:43;;;;;;;30.63;27.42;;;15.20;91.50;;;;;;5016070;28;20667;-90
2023/08/04 00:23:09;;;;;;;31.02;28.73;;;15.20;91.50;;;;;;4998659;28;20678;-90
2023/08/04 00:25:35;;;;;;;30.60;28.00;;;15.20;91.50;;;;;;4998442;28;20669;-88
2023/08/04 00:28:00;;;;;;;30.33;27.48;;;15.20;91.60;;;;;;4998416;28;20180;-91
2023/08/04 00:30:26;;;;;;;30.00;27.17;;;15.20;91.80;;;;;;4998526;28;20251;-90
2023/08/04 00:32:53;;;;;;;29.70;27.13;;;15.20;92.00;;;;;;4998551;28;20602;-91
2023/08/04 00:35:19;;;;;;;29.42;26.98;;;15.20;92.10;;;;;;5016531;28;20216;-90
2023/08/04 00:37:44;;;;;;;29.45;26.70;;;15.20;92.20;;;;;;4998271;28;20649;-90
2023/08/04 00:40:10;;;;;;;28.90;26.40;;;15.20;92.30;;;;;;5016152;28;20204;-90
2023/08/04 00:42:36;;;;;;;29.85;26.30;;;15.20;92.40;;;;;;5015152;28;20197;-90
2023/08/04 00:45:03;;;;;;;28.38;25.67;;;15.20;92.40;;;;;;4997954;28;20193;-90
2023/08/04 00:47:35;;;;;;;29.02;26.13;;;15.20;92.50;;;;;;5015789;28;20213;-90
2023/08/04 00:50:02;;;;;;;29.77;26.88;;;15.20;92.50;;;;;;4997960;28;20177;-91
2023/08/04 00:52:27;;;;;;;28.08;25.38;;;15.30;92.60;;;;;;4997940;28;20270;-90
2023/08/04 00:54:53;;;;;;;28.70;25.92;;;15.30;92.70;;;;;;5015396;28;20622;-90
2023/08/04 00:57:18;;;;;;;29.63;26.67;;;15.30;92.70;;;;;;5015430;28;20184;-90
2023/08/04 00:59:44;;;;;;;29.00;27.00;;;15.40;92.80;;;;;;5015688;28;20208;-90
2023/08/04 01:02:10;;;;;;;31.45;28.15;;;15.40;92.80;;;;;;4997762;28;20177;-90
2023/08/04 01:04:36;;;;;;;30.40;27.45;;;15.50;92.90;;;;;;5015170;28;20381;-90
2023/08/04 01:07:05;;;;;;;29.67;26.70;;;15.50;92.90;;;;;;5015228;28;20256;-90
2023/08/04 01:09:49;;;;;;;30.20;27.35;;;15.60;93.00;;;;;;5015146;28;20181;-90
2023/08/04 01:12:18;;;;;;;31.45;28.67;;;15.50;92.90;;;;;;5015160;28;20630;-90
2023/08/04 01:14:46;;;;;;;30.20;27.70;;;15.50;93.00;;;;;;4997802;28;20292;-91
2023/08/04 01:17:22;;;;;;;29.55;27.20;;;15.50;93.00;;;;;;5014956;28;20173;-91
2023/08/04 01:19:47;;;;;;;30.80;28.10;;;15.60;93.10;;;;;;4997275;28;20627;-90
2023/08/04 01:22:13;;;;;;;31.20;27.88;;;15.60;93.00;;;;;;4997670;28;20184;-90
2023/08/04 01:24:38;;;;;;;29.95;27.52;;;15.70;93.00;;;;;;5015128;28;20193;-91
2023/08/04 01:27:05;;;;;;;30.92;27.83;;;15.70;92.90;;;;;;4997310;28;20177;-91
2023/08/04 01:29:31;;;;;;;30.10;27.75;;;15.70;92.90;;;;;;5015059;28;20180;-90
2023/08/04 01:31:58;;;;;;;29.15;26.88;;;15.70;93.00;;;;;;5014862;28;20193;-89
2023/08/04 01:34:24;;;;;;;30.30;27.88;;;15.70;93.00;;;;;;4997368;28;20207;-91
2023/08/04 01:36:50;;;;;;;34.05;28.75;;;15.70;93.10;;;;;;4997222;28;20649;-90
2023/08/04 01:39:16;;;;;;;32.75;30.33;;;15.70;93.10;;;;;;4997069;28;20630;-91
2023/08/04 01:41:42;;;;;;;31.17;28.08;;;15.70;93.20;;;;;;5014586;28;20174;-90
2023/08/04 01:44:07;;;;;;;34.45;31.33;;;15.70;93.30;;;;;;5014386;28;20193;-90
2023/08/04 01:46:33;;;;;;;32.60;29.38;;;15.70;93.30;;;;;;5014515;28;20174;-90
2023/08/04 01:48:58;;;;;;;33.65;30.40;;;15.70;93.30;;;;;;5014810;28;20177;-90
2023/08/04 01:51:24;;;;;;;44.78;31.38;;;15.70;93.40;;;;;;5014328;28;20522;-90
2023/08/04 01:53:49;;;;;;;33.00;29.92;;;15.60;93.40;;;;;;4995970;28;20193;-90
2023/08/04 01:56:15;;;;;;;34.33;31.27;;;15.70;93.50;;;;;;5014540;28;20174;-90
2023/08/04 01:58:40;;;;;;;34.03;31.25;;;15.60;93.50;;;;;;4996776;28;20177;-90
2023/08/04 02:01:06;;;;;;;29.58;26.77;;;15.60;93.50;;;;;;4996606;28;20205;-90
2023/08/04 02:03:33;;;;;;;28.50;26.02;;;15.60;93.50;;;;;;5014486;28;20168;-90
2023/08/04 02:05:58;;;;;;;28.80;26.23;;;15.70;93.50;;;;;;4996505;28;20225;-90
2023/08/04 02:08:24;;;;;;;27.67;25.13;;;15.60;93.40;;;;;;4996587;28;20367;-90
2023/08/04 02:10:50;;;;;;;30.02;24.90;;;15.60;93.40;;;;;;5014064;28;20256;-90
2023/08/04 02:13:16;;;;;;;29.05;26.73;;;15.60;93.40;;;;;;5014308;28;20696;-90
2023/08/04 02:15:42;;;;;;;26.70;24.17;;;15.70;93.50;;;;;;5014019;28;20205;-90
2023/08/04 02:18:07;;;;;;;29.02;26.15;;;15.70;93.50;;;;;;5013901;28;20208;-90
2023/08/04 02:20:33;;;;;;;28.52;25.52;;;15.70;93.60;;;;;;5013869;28;20251;-90
2023/08/04 02:22:58;;;;;;;29.42;26.42;;;15.70;93.60;;;;;;4996600;28;20268;-91
2023/08/04 02:25:24;;;;;;;27.90;25.15;;;15.70;93.60;;;;;;4996197;28;20225;-91
2023/08/04 02:27:49;;;;;;;28.92;26.45;;;15.70;93.60;;;;;;4996223;28;20197;-90
2023/08/04 02:30:15;;;;;;;27.70;25.35;;;15.70;93.60;;;;;;5013760;28;20217;-90
2023/08/04 02:32:41;;;;;;;27.35;24.75;;;15.60;93.70;;;;;;5014261;28;20683;-90
2023/08/04 02:35:07;;;;;;;31.55;24.98;;;15.70;93.60;;;;;;4996196;28;20197;-90
2023/08/04 02:37:32;;;;;;;28.95;26.45;;;15.60;93.60;;;;;;5013939;28;20173;-90
2023/08/04 02:39:58;;;;;;;31.08;26.83;;;15.60;93.70;;;;;;5013560;28;20263;-90
2023/08/04 02:42:24;;;;;;;29.15;26.55;;;15.70;93.70;;;;;;5014265;28;20247;-91
2023/08/04 02:44:54;;;;;;;28.08;25.75;;;15.70;93.70;;;;;;4995981;28;20200;-90
2023/08/04 02:47:20;;;;;;;29.52;27.23;;;15.70;93.80;;;;;;4996045;28;20546;-89
2023/08/04 02:49:45;;;;;;;31.52;28.48;;;15.80;93.70;;;;;;4996679;28;20180;-89
2023/08/04 02:52:14;;;;;;;28.33;25.73;;;15.80;93.50;;;;;;4996599;28;20325;-90
2023/08/04 02:54:40;;;;;;;32.13;29.15;;;15.80;93.50;;;;;;4995616;28;20201;-89
2023/08/04 02:57:06;;;;;;;31.98;29.02;;;15.70;93.30;;;;;;4995875;28;20320;-89
2023/08/04 02:59:31;;;;;;;31.10;28.65;;;15.70;93.10;;;;;;4996085;28;20211;-89
2023/08/04 03:01:57;;;;;;;30.90;28.50;;;15.80;93.10;;;;;;4995829;28;20181;-90
2023/08/04 03:04:22;;;;;;;32.00;29.38;;;15.80;93.00;;;;;;4996416;28;20189;-90
2023/08/04 03:06:48;;;;;;;44.70;30.58;;;15.80;92.90;;;;;;5000230;28;20649;-90
2023/08/04 03:09:13;;;;;;;27.80;25.40;;;15.80;92.80;;;;;;5001004;28;20264;-89
2023/08/04 03:11:39;;;;;;;29.57;27.27;;;15.80;92.80;;;;;;5000086;28;20176;-90
2023/08/04 03:14:04;;;;;;;31.27;28.58;;;15.80;92.80;;;;;;5000401;28;20228;-90
2023/08/04 03:16:30;;;;;;;31.40;28.77;;;15.80;92.80;;;;;;4999551;28;20546;-90
2023/08/04 03:18:55;;;;;;;30.95;28.50;;;15.80;92.80;;;;;;5000829;28;20185;-90
2023/08/04 03:21:21;;;;;;;31.38;28.95;;;15.80;92.90;;;;;;4999712;28;20593;-89
2023/08/04 03:23:46;;;;;;;32.03;29.55;;;15.80;92.90;;;;;;4999601;28;20177;-89
2023/08/04 03:26:12;;;;;;;30.45;27.70;;;15.80;93.00;;;;;;4999338;28;20173;-90
2023/08/04 03:28:37;;;;;;;31.02;28.67;;;15.70;93.20;;;;;;5017026;28;20185;-90
2023/08/04 03:31:03;;;;;;;30.92;28.63;;;15.80;93.20;;;;;;5000006;28;20549;-90
2023/08/04 03:33:28;;;;;;;30.70;27.98;;;15.70;93.30;;;;;;4999280;28;20197;-89
2023/08/04 03:35:54;;;;;;;39.25;36.03;;;15.70;93.30;;;;;;4999441;28;20231;-90
2023/08/04 03:38:19;;;;;;;45.92;42.00;;;15.70;93.40;;;;;;4999627;28;20177;-90
2023/08/04 03:40:45;;;;;;;50.63;47.03;;;15.80;93.40;;;;;;5016856;28;20197;-90
2023/08/04 03:43:11;;;;;;;30.90;28.13;;;15.80;93.50;;;;;;5017157;28;20548;-90
2023/08/04 03:45:39;;;;;;;30.40;27.52;;;15.80;93.60;;;;;;5016753;28;20192;-89
2023/08/04 03:48:05;;;;;;;31.17;28.00;;;15.80;93.70;;;;;;4999191;28;20657;-90
2023/08/04 03:50:31;;;;;;;44.17;40.22;;;15.80;93.80;;;;;;5016686;28;20188;-90
2023/08/04 03:52:56;;;;;;;44.08;40.15;;;15.80;93.90;;;;;;4999652;28;20276;-90
2023/08/04 03:55:22;;;;;;;33.58;28.17;;;15.80;94.00;;;;;;5016526;28;20657;-90
2023/08/04 03:57:47;;;;;;;31.75;28.60;;;15.80;94.00;;;;;;4999844;28;20643;-90
2023/08/04 04:00:13;;;;;;;45.33;41.83;;;15.80;94.00;;;;;;4998887;28;20201;-89
2023/08/04 04:02:39;;;;;;;44.40;40.55;;;15.70;93.80;;;;;;5016501;28;20180;-90
2023/08/04 04:05:04;;;;;;;50.05;45.72;;;15.80;93.80;;;;;;5016553;28;20196;-90
2023/08/04 04:07:30;;;;;;;33.65;31.15;;;15.80;93.70;;;;;;4998794;28;20177;-89
2023/08/04 04:09:56;;;;;;;32.47;29.75;;;15.80;93.50;;;;;;5016230;28;20177;-90
2023/08/04 04:12:21;;;;;;;31.80;29.00;;;15.80;93.40;;;;;;4998808;28;20192;-90
2023/08/04 04:14:47;;;;;;;32.85;30.15;;;15.80;93.30;;;;;;5016158;28;20196;-90
2023/08/04 04:17:12;;;;;;;33.45;30.50;;;15.80;93.30;;;;;;4998681;28;20181;-90
2023/08/04 04:19:38;;;;;;;33.08;29.80;;;15.80;93.30;;;;;;4998482;28;20711;-90
2023/08/04 04:22:04;;;;;;;32.92;30.10;;;15.80;93.30;;;;;;5016214;28;20182;-90
2023/08/04 04:24:29;;;;;;;35.80;32.20;;;15.70;93.10;;;;;;5015940;28;20255;-90
2023/08/04 04:26:55;;;;;;;32.30;29.95;;;15.70;93.00;;;;;;5016047;28;20173;-90
2023/08/04 04:29:20;;;;;;;32.53;29.40;;;15.70;93.00;;;;;;4998833;28;20725;-90
2023/08/04 04:31:46;;;;;;;34.10;31.38;;;15.80;93.00;;;;;;5016068;28;20196;-90
2023/08/04 04:34:12;;;;;;;32.55;30.17;;;15.80;92.90;;;;;;5015860;28;20194;-90
2023/08/04 04:36:37;;;;;;;33.05;29.95;;;15.70;92.70;;;;;;4998394;28;20173;-90
2023/08/04 04:39:03;;;;;;;34.95;32.13;;;15.80;92.60;;;;;;5015713;28;20183;-90
2023/08/04 04:41:29;;;;;;;32.42;29.63;;;15.80;92.50;;;;;;5015872;28;20220;-90
2023/08/04 04:43:55;;;;;;;31.83;28.92;;;15.90;92.40;;;;;;4999120;28;20189;-90
2023/08/04 04:46:21;;;;;;;31.35;28.48;;;15.90;92.40;;;;;;5015636;28;20173;-90
2023/08/04 04:48:46;;;;;;;34.72;30.85;;;16.00;92.50;;;;;;5015606;28;20174;-90
2023/08/04 04:51:12;;;;;;;33.55;31.05;;;16.00;92.60;;;;;;4998038;28;20657;-89
2023/08/04 04:53:37;;;;;;;33.08;30.42;;;16.00;92.70;;;;;;4997911;28;20200;-90
2023/08/04 04:56:03;;;;;;;32.78;29.83;;;16.00;92.60;;;;;;5015362;28;20182;-90
2023/08/04 04:58:31;;;;;;;33.83;31.42;;;16.00;92.60;;;;;;5015432;28;20256;-90
2023/08/04 05:01:04;;;;;;;31.73;28.95;;;16.00;92.60;;;;;;4997804;28;20288;-89
2023/08/04 05:03:29;;;;;;;32.28;29.90;;;16.00;92.70;;;;;;5015272;28;20170;-90
2023/08/04 05:05:58;;;;;;;32.75;29.85;;;16.00;92.80;;;;;;5015238;28;20177;-90
2023/08/04 05:08:23;;;;;;;31.55;28.55;;;16.00;92.90;;;;;;5015242;28;20760;-90
2023/08/04 05:10:53;;;;;;;30.85;28.40;;;16.00;93.00;;;;;;5015212;28;20253;-90
2023/08/04 05:13:18;;;;;;;29.65;27.20;;;16.00;93.00;;;;;;4997634;28;20182;-90
2023/08/04 05:15:47;;;;;;;30.73;28.13;;;16.00;93.10;;;;;;4997569;28;20713;-90
2023/08/04 05:18:12;;;;;;;29.25;27.05;;;16.00;93.10;;;;;;4997707;28;20231;-90
2023/08/04 05:20:38;;;;;;;29.98;27.38;;;16.00;93.10;;;;;;4997543;28;20209;-90
2023/08/04 05:23:03;;;;;;;32.40;29.17;;;16.10;93.10;;;;;;5015073;28;20165;-90
2023/08/04 05:25:29;;;;;;;34.63;31.17;;;16.10;93.10;;;;;;5014895;28;20194;-91
2023/08/04 05:27:54;;;;;;;31.70;29.52;;;16.10;93.10;;;;;;5015141;28;20177;-90
2023/08/04 05:30:20;;;;;;;34.60;31.55;;;16.20;93.10;;;;;;5014811;28;20180;-91
2023/08/04 05:32:46;;;;;;;33.95;30.65;;;16.20;93.00;;;;;;4997402;28;20300;-90
2023/08/04 05:35:12;;;;;;;34.38;31.60;;;16.20;92.90;;;;;;5014740;28;20190;-91
2023/08/04 05:37:38;;;;;;;35.78;32.58;;;16.10;92.80;;;;;;4997372;28;20220;-90
2023/08/04 05:40:05;;;;;;;34.60;31.98;;;16.20;92.70;;;;;;4997231;28;20283;-90
2023/08/04 05:42:30;;;;;;;34.70;31.95;;;16.20;92.70;;;;;;5014683;28;20172;-91
2023/08/04 05:44:56;;;;;;;35.78;32.78;;;16.20;92.70;;;;;;4996950;28;20190;-90
2023/08/04 05:47:25;;;;;;;34.20;31.52;;;16.20;92.60;;;;;;5014823;28;20174;-90
2023/08/04 05:49:51;;;;;;;31.25;28.75;;;16.20;92.50;;;;;;5014539;28;20181;-90
2023/08/04 05:52:16;;;;;;;34.08;31.30;;;16.20;92.60;;;;;;5014389;28;20174;-90
2023/08/04 05:54:42;;;;;;;33.88;31.23;;;16.20;92.60;;;;;;4996809;28;20704;-90
2023/08/04 05:57:07;;;;;;;32.78;30.33;;;16.20;92.50;;;;;;4996945;28;20562;-90
2023/08/04 05:59:33;;;;;;;33.00;30.65;;;16.30;92.50;;;;;;4996764;28;20685;-90
2023/08/04 06:01:58;;;;;;;34.97;32.28;;;16.30;92.40;;;;;;5014602;28;20583;-90
2023/08/04 06:04:24;;;;;;;34.55;32.20;;;16.30;92.10;;;;;;4996664;28;20759;-90
2023/08/04 06:06:53;;;;;;;31.63;29.02;;;16.30;91.90;;;;;;5014221;28;20712;-90
2023/08/04 06:09:18;;;;;;;32.58;30.20;;;16.30;91.80;;;;;;4996127;28;20186;-91
2023/08/04 06:11:44;;;;;;;34.13;31.33;;;16.40;91.90;;;;;;4996879;28;20189;-91
2023/08/04 06:14:10;;;;;;;32.38;29.80;;;16.40;92.00;;;;;;4997411;28;20201;-90
2023/08/04 06:16:35;;;;;;;33.08;30.38;;;16.40;91.80;;;;;;5014170;28;20654;-91
2023/08/04 06:19:01;;;;;;;30.02;27.88;;;16.40;91.90;;;;;;4996648;28;20174;-90
2023/08/04 06:21:28;;;;;;;31.27;29.10;;;16.50;91.80;;;;;;4996327;28;20215;-90
2023/08/04 06:23:54;;;;;;;31.60;28.80;;;16.40;91.60;;;;;;4996475;28;20186;-90
2023/08/04 06:26:19;;;;;;;30.73;28.17;;;16.40;91.60;;;;;;4996673;28;20169;-91
2023/08/04 06:28:45;;;;;;;32.28;29.38;;;16.50;91.40;;;;;;5013891;28;20174;-90
2023/08/04 06:31:11;;;;;;;32.50;29.90;;;16.50;91.30;;;;;;4996455;28;20181;-90
2023/08/04 06:33:36;;;;;;;32.65;30.10;;;16.50;91.40;;;;;;5013699;28;20171;-90
2023/08/04 06:36:02;;;;;;;33.33;30.83;;;16.60;91.50;;;;;;4996335;28;20323;-90
2023/08/04 06:38:27;;;;;;;31.50;29.15;;;16.70;91.40;;;;;;4996348;28;20192;-90
2023/08/04 06:40:53;;;;;;;32.28;29.85;;;16.70;91.50;;;;;;5013367;28;20213;-89
2023/08/04 06:43:18;;;;;;;32.60;30.30;;;16.70;90.90;;;;;;5017087;28;20173;-89
2023/08/04 06:45:44;;;;;;;32.80;30.17;;;16.80;91.00;;;;;;5013917;28;20422;-89
2023/08/04 06:48:09;;;;;;;29.27;27.30;;;16.80;91.10;;;;;;5014395;28;20212;-90
2023/08/04 06:50:35;;;;;;;31.00;28.33;;;16.70;90.90;;;;;;5013666;28;20234;-89
2023/08/04 06:53:00;;;;;;;30.83;28.38;;;16.80;91.20;;;;;;5013324;28;20196;-89
2023/08/04 06:55:26;;;;;;;29.42;27.05;;;16.80;90.90;;;;;;4995840;28;20570;-88
2023/08/04 06:57:52;;;;;;;30.70;28.25;;;17.00;90.90;;;;;;4996042;28;20657;-90
2023/08/04 07:00:17;;;;;;;30.00;27.85;;;17.20;90.60;;;;;;5013379;28;20619;-89
2023/08/04 07:02:46;;;;;;;29.42;27.45;;;17.30;90.10;;;;;;4995747;28;20633;-89
2023/08/04 07:05:12;;;;;;;30.70;28.50;;;17.30;90.00;;;;;;4996479;28;20277;-89
2023/08/04 07:07:37;;;;;;;31.75;29.63;;;17.30;90.00;;;;;;4995769;28;20185;-88
2023/08/04 07:10:03;;;;;;;30.13;28.02;;;17.30;89.70;;;;;;4996623;28;20182;-89
2023/08/04 07:12:29;;;;;;;29.42;27.25;;;17.30;89.50;;;;;;4995835;28;20544;-89
2023/08/04 07:14:54;;;;;;;29.05;26.70;;;17.30;89.30;;;;;;4995740;28;20684;-88
2023/08/04 07:17:20;;;;;;;29.80;27.40;;;17.30;88.80;;;;;;4996289;28;20173;-89
2023/08/04 07:19:48;;;;;;;28.00;25.80;;;17.20;88.70;;;;;;4995631;28;20201;-90
2023/08/04 07:22:14;;;;;;;27.52;25.42;;;17.20;88.60;;;;;;5013216;28;20166;-89
2023/08/04 07:24:39;;;;;;;27.02;25.08;;;17.20;88.80;;;;;;4995478;28;20196;-88
2023/08/04 07:27:05;;;;;;;29.60;26.98;;;17.10;89.00;;;;;;4995662;28;20169;-87
2023/08/04 07:29:33;;;;;;;28.88;26.63;;;17.10;89.30;;;;;;4995746;28;20704;-89
2023/08/04 07:31:58;;;;;;;30.48;27.98;;;17.00;89.70;;;;;;5013015;28;20189;-88
2023/08/04 07:34:24;;;;;;;29.55;27.38;;;17.00;90.00;;;;;;4995495;28;20201;-89
2023/08/04 07:36:49;;;;;;;29.85;27.27;;;16.90;90.20;;;;;;4996139;28;20181;-89
2023/08/04 07:39:15;;;;;;;29.35;26.80;;;17.00;90.70;;;;;;5012937;28;20180;-88
2023/08/04 07:41:41;;;;;;;27.63;25.70;;;16.90;90.80;;;;;;4995670;28;20174;-89
2023/08/04 07:44:07;;;;;;;26.90;24.50;;;17.00;90.80;;;;;;4995329;28;20768;-88
2023/08/04 07:46:32;;;;;;;27.70;25.73;;;16.90;90.30;;;;;;4995505;28;20183;-88
2023/08/04 07:48:58;;;;;;;26.33;24.35;;;17.00;90.60;;;;;;5013319;28;20176;-88
2023/08/04 07:51:24;;;;;;;27.27;25.38;;;17.10;90.60;;;;;;4995955;28;20170;-89
2023/08/04 07:53:49;;;;;;;25.70;23.67;;;17.10;90.50;;;;;;5016855;28;20198;-88
2023/08/04 07:56:15;;;;;;;25.73;23.90;;;17.00;89.70;;;;;;4999103;28;20228;-88
2023/08/04 07:58:41;;;;;;;24.85;23.17;;;17.00;88.90;;;;;;4999125;28;20185;-89
2023/08/04 08:01:07;;;;;;;22.80;21.50;;;17.00;88.60;;;;;;5016662;28;20255;-87
2023/08/04 08:03:33;;;;;;;22.85;21.35;;;17.10;88.50;;;;;;5016646;28;20541;-90
2023/08/04 08:05:59;;;;;;;22.98;21.30;;;17.20;88.30;;;;;;4998882;28;20181;-89
2023/08/04 08:08:28;;;;;;;23.30;21.80;;;17.20;88.20;;;;;;5016476;28;20239;-89
2023/08/04 08:11:26;;;;;;;23.52;21.98;;;17.20;88.00;;;;;;5016597;28;20169;-89
2023/08/04 08:13:51;;;;;;;22.70;21.27;;;17.20;88.30;;;;;;4998951;28;20225;-90
2023/08/04 08:16:17;;;;;;;23.05;21.42;;;17.40;88.60;;;;;;5016494;28;20657;-89
2023/08/04 08:18:43;;;;;;;23.45;21.67;;;17.30;88.30;;;;;;5016598;28;20641;-90
2023/08/04 08:21:10;;;;;;;24.73;22.85;;;17.30;87.40;;;;;;4998686;28;20211;-90
2023/08/04 08:23:36;;;;;;;23.50;22.00;;;17.30;87.40;;;;;;5016132;28;20196;-90
2023/08/04 08:26:05;;;;;;;22.73;21.10;;;17.40;87.20;;;;;;5016174;28;20181;-91
2023/08/04 08:28:31;;;;;;;22.63;21.02;;;17.50;88.10;;;;;;5016328;28;20170;-91
2023/08/04 08:30:56;;;;;;;23.65;21.83;;;17.50;87.60;;;;;;5016046;28;20253;-90
2023/08/04 08:33:22;;;;;;;23.90;22.20;;;17.60;87.80;;;;;;5016250;28;20669;-91
2023/08/04 08:35:47;;;;;;;22.92;21.23;;;17.60;87.30;;;;;;5016421;28;20200;-90
2023/08/04 08:38:13;;;;;;;22.38;20.75;;;17.70;87.50;;;;;;4998499;28;20684;-91
2023/08/04 08:40:39;;;;;;;22.52;20.92;;;17.80;86.90;;;;;;5016438;28;20236;-91
2023/08/04 08:43:04;;;;;;;22.08;20.20;;;17.80;86.20;;;;;;4998526;28;20181;-91
2023/08/04 08:45:33;;;;;;;22.63;20.60;;;17.80;86.90;;;;;;5016103;28;20657;-91
2023/08/04 08:47:59;;;;;;;22.65;20.65;;;17.90;86.80;;;;;;4998583;28;20223;-90
2023/08/04 08:50:26;;;;;;;35.25;32.95;;;18.20;86.80;;;;;;4999514;28;20185;-91
2023/08/04 08:53:00;;;;;;;38.13;35.40;;;18.40;86.40;;;;;;4998150;28;20200;-92
2023/08/04 08:55:29;;;;;;;42.50;39.60;;;18.30;85.70;;;;;;5015836;28;20200;-92
2023/08/04 08:57:56;;;;;;;24.00;21.88;;;18.30;85.10;;;;;;4998095;28;20665;-92
2023/08/04 09:00:22;;;;;;;22.63;20.92;;;18.30;85.20;;;;;;4998021;28;20276;-92
2023/08/04 09:02:48;;;;;;;40.38;37.45;;;18.60;85.80;;;;;;4997769;28;20558;-89
2023/08/04 09:05:16;;;;;;;39.08;36.17;;;18.80;86.10;;;;;;4997256;28;20195;-90
2023/08/04 09:07:42;;;;;;;45.10;42.30;;;18.90;85.40;;;;;;4998344;28;20653;-91
2023/08/04 09:10:08;;;;;;;23.00;21.38;;;18.60;83.50;;;;;;4997933;28;20186;-91
2023/08/04 09:12:34;;;;;;;22.17;20.52;;;18.70;84.30;;;;;;4997768;28;20556;-91
2023/08/04 09:15:01;;;;;;;39.35;36.55;;;18.80;83.90;;;;;;4997673;28;20205;-92
2023/08/04 09:17:33;;;;;;;44.72;41.67;;;18.70;82.90;;;;;;4997730;28;20183;-92
2023/08/04 09:20:00;;;;;;;47.05;44.00;;;18.50;83.50;;;;;;4997627;28;20299;-90
2023/08/04 09:22:26;;;;;;;24.55;22.83;;;18.20;85.90;;;;;;5015067;28;20173;-91
2023/08/04 09:24:58;;;;;;;27.73;26.03;;;17.80;87.40;;;;;;5015085;28;20193;-90
2023/08/04 09:27:43;;;;;;;28.05;26.35;;;17.00;89.20;;;;;;5014914;28;20608;-90
2023/08/04 09:30:10;;;;;;;23.80;22.20;;;16.90;90.70;;;;;;5014873;28;20659;-90
2023/08/04 09:32:44;;;;;;;24.98;23.38;;;16.90;91.30;;;;;;4997502;28;20251;-91
2023/08/04 09:35:11;;;;;;;24.90;23.05;;;16.90;91.10;;;;;;5014711;28;20193;-90
2023/08/04 09:37:38;;;;;;;24.98;23.13;;;16.80;91.00;;;;;;5014807;28;20252;-90
2023/08/04 09:40:12;;;;;;;23.45;21.95;;;17.00;91.30;;;;;;4997309;28;20228;-91
2023/08/04 09:42:38;;;;;;;22.25;20.83;;;17.00;90.90;;;;;;4997664;28;20542;-90
2023/08/04 09:45:05;;;;;;;21.20;19.75;;;17.10;90.90;;;;;;5014750;28;20193;-90
2023/08/04 09:47:30;;;;;;;23.10;21.35;;;17.30;91.30;;;;;;5014578;28;20180;-90
2023/08/04 09:49:57;;;;;;;21.85;20.40;;;17.40;91.10;;;;;;5014580;28;20173;-89
2023/08/04 09:52:23;;;;;;;23.38;21.55;;;17.40;90.40;;;;;;4997261;28;20525;-88
2023/08/04 09:54:52;;;;;;;24.20;22.50;;;17.50;90.70;;;;;;5014362;28;20235;-87
2023/08/04 09:57:18;;;;;;;24.15;22.35;;;17.50;90.20;;;;;;4996918;28;20188;-88
2023/08/04 09:59:44;;;;;;;22.35;20.58;;;17.80;90.40;;;;;;4997056;28;20204;-88
2023/08/04 10:02:09;;;;;;;23.77;22.17;;;18.00;90.40;;;;;;4996859;28;20181;-89
2023/08/04 10:04:37;;;;;;;23.38;21.45;;;18.20;90.40;;;;;;4996607;28;20209;-89
2023/08/04 10:07:03;;;;;;;25.05;22.67;;;18.30;89.70;;;;;;4996655;28;20181;-89
2023/08/04 10:09:31;;;;;;;23.65;21.65;;;18.20;87.90;;;;;;5014140;28;20174;-90
2023/08/04 10:11:58;;;;;;;27.58;25.23;;;18.20;87.00;;;;;;5014669;28;20176;-90
2023/08/04 10:14:23;;;;;;;26.00;24.00;;;18.30;86.80;;;;;;4995880;28;20193;-90
2023/08/04 10:16:49;;;;;;;22.83;21.30;;;18.20;86.00;;;;;;5014173;28;20176;-89
2023/08/04 10:19:18;;;;;;;23.98;22.40;;;18.40;86.80;;;;;;4996375;28;20669;-90
2023/08/04 10:21:44;;;;;;;22.27;20.60;;;18.70;86.80;;;;;;4997447;28;20181;-91
2023/08/04 10:24:12;;;;;;;22.45;20.70;;;18.70;84.80;;;;;;4996302;28;20545;-90
2023/08/04 10:26:49;;;;;;;23.77;21.65;;;18.90;85.50;;;;;;4996381;28;20641;-90
2023/08/04 10:29:16;;;;;;;24.17;22.33;;;18.90;84.40;;;;;;5014188;28;20165;-90
2023/08/04 10:31:56;;;;;;;23.17;21.50;;;19.40;85.00;;;;;;4996376;28;20220;-90
2023/08/04 10:34:28;;;;;;;21.77;20.02;;;19.80;84.70;;;;;;4996563;28;20201;-90
2023/08/04 10:37:14;;;;;;;24.17;22.15;;;19.90;80.70;;;;;;4996669;28;20173;-90
2023/08/04 10:39:41;;;;;;;26.45;24.33;;;19.70;80.40;;;;;;4997365;28;20239;-90
2023/08/04 10:42:14;;;;;;;26.02;23.80;;;19.70;81.60;;;;;;4996270;28;20173;-90
2023/08/04 10:44:49;;;;;;;25.48;23.58;;;19.60;80.00;;;;;;4996495;28;20258;-90
2023/08/04 10:47:15;;;;;;;27.65;25.48;;;19.40;81.60;;;;;;4997155;28;20173;-89
2023/08/04 10:49:41;;;;;;;27.90;25.70;;;19.10;82.00;;;;;;4996185;28;20195;-89
2023/08/04 10:52:07;;;;;;;27.80;25.60;;;19.00;83.30;;;;;;4996281;28;20404;-90
2023/08/04 10:54:32;;;;;;;27.55;25.52;;;18.80;82.50;;;;;;4996165;28;20806;-90
2023/08/04 10:56:58;;;;;;;26.27;24.25;;;18.70;83.00;;;;;;4996085;28;20687;-91
2023/08/04 10:59:24;;;;;;;25.70;23.70;;;18.60;84.30;;;;;;4995944;28;20184;-90
2023/08/04 11:01:49;;;;;;;26.17;24.17;;;18.70;84.00;;;;;;5013843;28;20539;-88
2023/08/04 11:04:15;;;;;;;25.73;23.92;;;18.70;84.40;;;;;;5013734;28;20197;-90
2023/08/04 11:06:41;;;;;;;25.13;23.10;;;18.30;84.10;;;;;;5013542;28;20252;-90
2023/08/04 11:09:09;;;;;;;25.23;23.30;;;18.10;84.20;;;;;;4996094;28;20274;-89
2023/08/04 11:11:35;;;;;;;25.23;23.10;;;17.70;85.10;;;;;;5013687;28;20736;-90
2023/08/04 11:14:03;;;;;;;26.02;23.80;;;17.80;85.20;;;;;;5013526;28;20272;-91
2023/08/04 11:16:32;;;;;;;24.77;22.90;;;17.50;84.90;;;;;;4995806;28;20717;-90
2023/08/04 11:18:58;;;;;;;23.85;22.10;;;17.40;84.60;;;;;;4995688;28;20180;-90
2023/08/04 11:21:23;;;;;;;24.08;22.40;;;17.60;85.20;;;;;;4995883;28;20205;-91
2023/08/04 11:23:49;;;;;;;23.60;22.00;;;17.60;85.70;;;;;;5013196;28;20191;-90
2023/08/04 11:26:15;;;;;;;21.52;20.02;;;17.70;85.10;;;;;;4997915;28;20181;-90
2023/08/04 11:28:41;;;;;;;21.48;19.40;;;18.30;86.10;;;;;;4999772;28;20173;-89
2023/08/04 11:31:07;;;;;;;19.73;18.33;;;18.80;83.70;;;;;;4999849;28;20252;-90
2023/08/04 11:33:33;;;;;;;20.20;18.13;;;19.20;81.50;;;;;;5017032;28;20211;-90
2023/08/04 11:36:03;;;;;;;22.83;21.08;;;19.70;81.70;;;;;;5017051;28;20644;-89
2023/08/04 11:38:30;;;;;;;22.25;20.58;;;19.80;77.90;;;;;;5017022;28;20169;-91
2023/08/04 11:40:58;;;;;;;22.35;20.58;;;20.10;79.10;;;;;;5016801;28;20205;-90
2023/08/04 11:43:25;;;;;;;22.75;21.15;;;20.50;80.10;;;;;;4999610;28;20177;-90
2023/08/04 11:45:50;;;;;;;23.27;21.35;;;20.60;77.60;;;;;;5016885;28;20200;-90
2023/08/04 11:48:18;;;;;;;23.90;22.10;;;20.60;78.00;;;;;;4999203;28;20173;-90
2023/08/04 11:50:43;;;;;;;28.08;25.65;;;20.70;76.00;;;;;;4999980;28;20332;-90
2023/08/04 11:53:16;;;;;;;26.77;24.75;;;20.50;72.90;;;;;;5017049;28;20264;-90
2023/08/04 11:56:21;;;;;;;25.75;23.58;;;20.40;74.30;;;;;;4999625;28;20292;-89
2023/08/04 11:58:56;;;;;;;24.85;22.80;;;20.50;74.80;;;;;;4982381;28;20725;-89
2023/08/04 12:01:30;;;;;;;23.20;21.58;;;20.80;73.80;;;;;;4999165;28;20192;-89
2023/08/04 12:03:56;;;;;;;23.52;21.83;;;21.20;72.60;;;;;;4999559;28;20192;-89
2023/08/04 12:06:23;;;;;;;24.88;23.05;;;21.10;72.60;;;;;;5017026;28;20181;-89
2023/08/04 12:09:14;;;;;;;24.77;22.50;;;21.00;72.00;;;;;;4998945;28;20181;-90
2023/08/04 12:11:47;;;;;;;24.27;22.42;;;21.40;71.80;;;;;;4993730;28;20264;-90
2023/08/04 12:14:13;;;;;;;25.08;23.05;;;21.80;72.10;;;;;;5016696;28;20217;-89
2023/08/04 12:17:02;;;;;;;26.30;24.13;;;21.60;69.90;;;;;;4999107;28;20867;-89
2023/08/04 12:19:29;;;;;;;25.75;23.60;;;21.30;68.70;;;;;;4998634;28;20170;-90
2023/08/04 12:21:59;;;;;;;26.05;23.70;;;21.30;71.20;;;;;;5016563;28;20271;-89
2023/08/04 12:24:26;;;;;;;26.90;24.00;;;21.50;71.90;;;;;;4999321;28;20322;-91
2023/08/04 12:26:51;;;;;;;23.92;21.98;;;21.40;73.10;;;;;;5016341;28;20178;-90